Time;durP1;ratioP1;P1;durP2;ratioP2;P2;SDS_P1;SDS_P2;PMS_P1;PMS_P2;Temp;Humidity;BMP_temperature;BMP_pressure;BME280_temperature;BME280_humidity;BME280_pressure;Samples;Min_cycle;Max_cycle;Signal;HPM_P1;HPM_P2
2023/06/20 00:01:17;;;;;;;8.18;3.05;;;18.20;99.90;;;;;;4997484;28;20217;-82
2023/06/20 00:03:43;;;;;;;4.72;2.90;;;18.10;99.90;;;;;;5015333;28;20171;-82
2023/06/20 00:06:09;;;;;;;10.38;3.67;;;18.10;99.90;;;;;;5014584;28;20179;-82
2023/06/20 00:08:34;;;;;;;10.20;3.45;;;18.10;99.90;;;;;;5014696;28;20175;-82
2023/06/20 00:11:00;;;;;;;8.48;3.20;;;18.10;99.90;;;;;;5014185;28;20193;-82
2023/06/20 00:13:25;;;;;;;11.73;3.45;;;18.10;99.90;;;;;;5014252;28;20581;-83
2023/06/20 00:15:51;;;;;;;10.05;3.28;;;18.10;99.90;;;;;;5014051;28;20633;-82
2023/06/20 00:18:17;;;;;;;8.32;3.08;;;18.10;99.90;;;;;;5013759;28;20233;-81
2023/06/20 00:20:46;;;;;;;9.57;3.35;;;18.10;99.90;;;;;;5013716;28;20214;-80
2023/06/20 00:23:12;;;;;;;8.80;3.67;;;18.20;99.90;;;;;;4996070;28;20568;-80
2023/06/20 00:25:37;;;;;;;10.18;3.42;;;18.20;99.90;;;;;;5014556;28;20181;-81
2023/06/20 00:28:03;;;;;;;8.98;3.33;;;18.20;99.90;;;;;;5013812;28;20659;-81
2023/06/20 00:30:29;;;;;;;10.23;3.67;;;18.20;99.90;;;;;;5013444;28;20194;-85
2023/06/20 00:32:58;;;;;;;10.48;3.47;;;18.20;99.90;;;;;;5013599;28;20171;-83
2023/06/20 00:35:24;;;;;;;12.15;3.88;;;18.20;99.90;;;;;;5008318;28;20179;-82
2023/06/20 00:37:50;;;;;;;10.65;3.72;;;18.20;99.90;;;;;;5005780;28;20183;-83
2023/06/20 00:40:16;;;;;;;9.95;3.47;;;18.20;99.90;;;;;;5013334;28;20229;-85
2023/06/20 00:42:42;;;;;;;11.65;3.30;;;18.20;99.90;;;;;;5001055;28;20171;-83
2023/06/20 00:45:37;;;;;;;15.40;4.65;;;18.20;99.90;;;;;;5024466;28;20591;-86
2023/06/20 00:48:07;;;;;;;11.32;4.32;;;18.20;99.90;;;;;;5007967;28;20190;-86
2023/06/20 00:50:34;;;;;;;8.82;3.17;;;18.10;99.90;;;;;;5030605;28;20189;-85
2023/06/20 00:53:00;;;;;;;10.32;3.78;;;18.10;99.90;;;;;;5029349;28;20213;-85
2023/06/20 00:55:28;;;;;;;10.05;3.40;;;18.10;99.90;;;;;;5025191;28;20539;-71
2023/06/20 00:57:58;;;;;;;6.40;3.55;;;18.00;99.90;;;;;;5012677;28;20183;-74
2023/06/20 01:00:28;;;;;;;10.75;3.95;;;17.90;99.90;;;;;;5012566;28;20242;-80
2023/06/20 01:02:57;;;;;;;13.60;3.95;;;17.90;99.90;;;;;;5013132;28;20203;-79
2023/06/20 01:05:27;;;;;;;7.90;3.42;;;17.90;99.90;;;;;;5012816;28;20170;-80
2023/06/20 01:08:10;;;;;;;12.50;3.65;;;18.00;99.90;;;;;;4995123;28;20736;-81
2023/06/20 01:10:47;;;;;;;9.55;3.25;;;18.00;99.90;;;;;;5012478;28;20175;-77
2023/06/20 01:13:35;;;;;;;8.38;3.60;;;18.00;99.90;;;;;;5012348;28;20174;-78
2023/06/20 01:16:10;;;;;;;9.93;3.53;;;18.00;99.90;;;;;;5012770;28;20174;-77
2023/06/20 01:19:00;;;;;;;13.50;4.07;;;18.00;99.90;;;;;;5012590;28;20660;-77
2023/06/20 01:21:36;;;;;;;10.98;3.45;;;17.90;99.90;;;;;;5012190;28;20245;-77
2023/06/20 01:24:13;;;;;;;14.70;3.70;;;17.90;99.90;;;;;;5012293;28;20185;-76
2023/06/20 01:26:57;;;;;;;9.82;3.78;;;17.90;99.90;;;;;;5012068;28;20261;-76
2023/06/20 01:29:34;;;;;;;11.90;4.45;;;17.90;99.90;;;;;;5012173;28;20175;-76
2023/06/20 01:32:04;;;;;;;13.07;3.92;;;17.90;99.90;;;;;;5012081;28;20328;-72
2023/06/20 01:34:32;;;;;;;7.57;3.60;;;17.90;99.90;;;;;;5012188;28;20183;-73
2023/06/20 01:37:00;;;;;;;8.85;3.58;;;17.90;99.90;;;;;;5012017;28;20185;-73
2023/06/20 01:39:36;;;;;;;6.47;3.78;;;17.90;99.90;;;;;;5012051;28;20206;-74
2023/06/20 01:42:03;;;;;;;14.18;4.40;;;17.80;99.90;;;;;;5011964;28;20174;-74
2023/06/20 01:44:31;;;;;;;11.45;3.83;;;17.80;99.90;;;;;;5011910;28;20202;-72
2023/06/20 01:46:58;;;;;;;13.85;4.75;;;17.90;99.90;;;;;;5011835;28;20170;-74
2023/06/20 01:49:26;;;;;;;9.85;4.15;;;17.60;99.90;;;;;;5011813;28;20180;-74
2023/06/20 01:51:56;;;;;;;8.75;3.75;;;17.80;99.90;;;;;;5011682;28;20510;-73
2023/06/20 01:54:27;;;;;;;10.48;4.15;;;17.80;99.90;;;;;;5011698;28;20198;-73
2023/06/20 01:56:57;;;;;;;12.85;3.78;;;17.80;99.90;;;;;;5015210;28;20194;-71
2023/06/20 01:59:23;;;;;;;8.70;3.78;;;17.90;99.90;;;;;;5011502;28;20210;-71
2023/06/20 02:01:52;;;;;;;12.13;4.20;;;17.80;99.90;;;;;;5011568;28;20258;-72
2023/06/20 02:04:18;;;;;;;8.70;4.35;;;17.80;99.90;;;;;;5011437;28;20182;-73
2023/06/20 02:06:47;;;;;;;12.23;4.00;;;17.80;99.90;;;;;;5011663;28;21136;-73
2023/06/20 02:09:14;;;;;;;9.50;4.00;;;17.90;99.90;;;;;;5011375;28;20170;-72
2023/06/20 02:11:40;;;;;;;12.15;4.22;;;17.90;99.90;;;;;;5011661;28;20208;-72
2023/06/20 02:14:07;;;;;;;9.98;3.65;;;17.70;99.90;;;;;;5011575;28;20550;-74
2023/06/20 02:16:36;;;;;;;9.82;4.10;;;17.70;99.90;;;;;;5011360;28;20178;-74
2023/06/20 02:19:03;;;;;;;14.90;4.38;;;17.50;99.90;;;;;;5011491;28;20210;-71
2023/06/20 02:21:32;;;;;;;16.08;4.78;;;17.60;99.90;;;;;;5011295;28;20567;-70
2023/06/20 02:23:59;;;;;;;9.15;4.35;;;17.50;99.90;;;;;;5011232;28;20162;-71
2023/06/20 02:26:31;;;;;;;14.65;5.03;;;17.40;99.90;;;;;;5011167;28;20537;-71
2023/06/20 02:29:04;;;;;;;10.20;4.50;;;17.50;99.90;;;;;;5011292;28;20221;-71
2023/06/20 02:31:33;;;;;;;9.63;4.32;;;17.40;99.90;;;;;;5013166;28;20170;-71
2023/06/20 02:34:03;;;;;;;10.50;4.40;;;17.30;99.90;;;;;;5012551;28;20281;-70
2023/06/20 02:36:30;;;;;;;9.68;4.25;;;17.40;99.90;;;;;;5018607;28;20304;-69
2023/06/20 02:38:57;;;;;;;11.57;4.88;;;17.20;99.90;;;;;;5020599;28;20163;-69
2023/06/20 02:41:23;;;;;;;13.52;4.95;;;17.30;99.90;;;;;;5012692;28;20213;-70
2023/06/20 02:43:49;;;;;;;11.63;4.85;;;17.30;99.90;;;;;;5012726;28;20194;-73
2023/06/20 02:46:24;;;;;;;13.00;5.20;;;17.30;99.90;;;;;;5011980;28;20214;-74
2023/06/20 02:49:18;;;;;;;12.65;4.75;;;17.40;99.90;;;;;;5011532;28;20174;-73
2023/06/20 02:52:15;;;;;;;16.02;5.00;;;17.60;99.90;;;;;;5011232;28;20320;-71
2023/06/20 02:54:43;;;;;;;10.75;4.97;;;17.40;99.90;;;;;;5011295;28;20265;-72
2023/06/20 02:57:12;;;;;;;19.33;5.43;;;17.30;99.90;;;;;;5024743;28;20210;-71
2023/06/20 02:59:41;;;;;;;13.93;4.93;;;17.30;99.90;;;;;;5013284;28;20661;-71
2023/06/20 03:02:08;;;;;;;14.38;5.03;;;17.30;99.90;;;;;;5011908;28;20175;-70
2023/06/20 03:04:35;;;;;;;15.55;4.65;;;17.30;99.90;;;;;;5021847;28;20171;-70
2023/06/20 03:07:02;;;;;;;14.75;4.65;;;17.30;99.90;;;;;;5010994;28;20224;-70
2023/06/20 03:09:30;;;;;;;14.07;4.75;;;17.30;99.90;;;;;;5010673;28;20185;-70
2023/06/20 03:11:56;;;;;;;14.38;4.65;;;16.90;99.90;;;;;;5010486;28;20191;-70
2023/06/20 03:14:22;;;;;;;12.63;4.68;;;17.40;99.90;;;;;;5011156;28;20183;-70
2023/06/20 03:16:48;;;;;;;15.90;5.53;;;;;;;;;;5011769;28;20175;-70
2023/06/20 03:19:14;;;;;;;12.48;4.72;;;17.10;99.90;;;;;;4996883;28;20289;-71
2023/06/20 03:21:40;;;;;;;9.50;4.03;;;17.00;99.90;;;;;;5012652;28;20209;-76
2023/06/20 03:24:06;;;;;;;13.13;5.18;;;16.90;99.90;;;;;;5020648;28;20178;-76
2023/06/20 03:26:37;;;;;;;15.43;5.22;;;16.60;99.90;;;;;;5014310;28;20171;-77
2023/06/20 03:29:03;;;;;;;19.75;5.10;;;16.70;99.90;;;;;;5014417;28;20209;-78
2023/06/20 03:31:29;;;;;;;9.70;5.30;;;;;;;;;;5014457;28;20208;-76
2023/06/20 03:33:54;;;;;;;12.57;4.97;;;16.60;99.90;;;;;;5028087;28;20692;-77
2023/06/20 03:36:20;;;;;;;10.13;5.03;;;16.70;99.90;;;;;;5004630;28;20179;-77
2023/06/20 03:38:46;;;;;;;14.57;5.28;;;16.70;99.90;;;;;;5012852;28;20190;-77
2023/06/20 03:41:11;;;;;;;12.00;5.50;;;16.70;99.90;;;;;;5013894;28;20273;-78
2023/06/20 03:43:37;;;;;;;14.32;5.40;;;16.80;99.90;;;;;;5014124;28;20637;-78
2023/06/20 03:46:02;;;;;;;10.55;5.15;;;16.60;99.90;;;;;;5013903;28;20229;-78
2023/06/20 03:48:28;;;;;;;12.07;4.97;;;;;;;;;;5001957;28;20184;-78
2023/06/20 03:50:54;;;;;;;13.25;5.80;;;16.80;99.90;;;;;;5033124;28;20173;-78
2023/06/20 03:53:19;;;;;;;15.55;5.32;;;16.90;99.90;;;;;;5033373;28;20253;-78
2023/06/20 03:55:45;;;;;;;15.73;5.63;;;16.80;99.90;;;;;;5014646;28;20650;-77
2023/06/20 03:58:11;;;;;;;21.45;6.13;;;16.70;99.90;;;;;;5014227;28;20248;-77
2023/06/20 04:00:38;;;;;;;20.90;6.43;;;16.70;99.90;;;;;;5024336;28;20213;-76
2023/06/20 04:03:04;;;;;;;13.80;6.35;;;19.20;99.90;;;;;;5015039;28;20178;-73
2023/06/20 04:05:29;;;;;;;19.38;6.72;;;16.80;99.90;;;;;;5013670;28;20698;-72
2023/06/20 04:07:55;;;;;;;12.52;5.82;;;16.80;99.90;;;;;;5013597;28;20732;-72
2023/06/20 04:10:21;;;;;;;13.15;5.85;;;16.80;99.90;;;;;;5013874;28;20174;-72
2023/06/20 04:12:46;;;;;;;13.85;6.20;;;16.80;99.90;;;;;;5013651;28;20249;-72
2023/06/20 04:15:12;;;;;;;14.15;6.53;;;;;;;;;;5013678;28;20378;-72
2023/06/20 04:17:40;;;;;;;17.38;6.70;;;;;;;;;;5013482;28;20244;-72
2023/06/20 04:20:12;;;;;;;19.00;6.68;;;16.60;99.90;;;;;;5013628;28;20206;-72
2023/06/20 04:22:42;;;;;;;14.57;6.35;;;16.60;99.90;;;;;;5013480;28;20171;-71
2023/06/20 04:25:08;;;;;;;11.18;6.10;;;16.80;99.90;;;;;;5013173;28;20175;-72
2023/06/20 04:27:34;;;;;;;16.77;7.05;;;16.60;99.90;;;;;;5013440;28;20182;-72
2023/06/20 04:30:01;;;;;;;12.75;6.50;;;;;;;;;;5013111;28;20598;-73
2023/06/20 04:32:27;;;;;;;12.07;6.35;;;16.80;99.90;;;;;;5013402;28;20638;-74
2023/06/20 04:34:52;;;;;;;14.00;5.95;;;16.80;99.90;;;;;;5013216;28;20174;-72
2023/06/20 04:37:19;;;;;;;18.83;6.65;;;16.90;99.90;;;;;;5013266;28;20310;-72
2023/06/20 04:39:44;;;;;;;11.20;6.70;;;16.90;99.90;;;;;;5013126;28;20341;-74
2023/06/20 04:42:10;;;;;;;22.38;7.38;;;16.70;99.90;;;;;;5013103;28;20209;-73
2023/06/20 04:44:36;;;;;;;14.02;7.05;;;16.70;99.90;;;;;;5013020;28;20182;-72
2023/06/20 04:47:02;;;;;;;13.45;6.93;;;16.70;99.90;;;;;;5012970;28;20163;-73
2023/06/20 04:49:28;;;;;;;16.88;7.15;;;16.70;99.90;;;;;;5012953;28;20175;-72
2023/06/20 04:51:53;;;;;;;17.23;6.53;;;16.80;99.90;;;;;;5012769;28;20175;-72
2023/06/20 04:54:19;;;;;;;13.40;6.50;;;16.90;99.90;;;;;;5012816;28;20240;-73
2023/06/20 04:56:45;;;;;;;13.35;6.25;;;16.80;99.90;;;;;;4995617;28;20641;-72
2023/06/20 04:59:11;;;;;;;10.90;6.00;;;16.90;99.90;;;;;;5013461;28;20213;-73
2023/06/20 05:01:40;;;;;;;9.65;5.10;;;16.80;99.90;;;;;;5013581;28;20179;-75
2023/06/20 05:04:05;;;;;;;15.68;5.32;;;16.70;99.90;;;;;;5021877;28;20640;-75
2023/06/20 05:06:31;;;;;;;12.63;5.72;;;;;;;;;;5030940;28;20213;-71
2023/06/20 05:08:57;;;;;;;13.23;5.50;;;16.70;99.90;;;;;;5031724;28;20323;-71
2023/06/20 05:11:23;;;;;;;9.82;4.57;;;16.60;99.90;;;;;;5006841;28;20246;-71
2023/06/20 05:13:48;;;;;;;11.60;4.80;;;16.60;99.90;;;;;;5012860;28;20225;-70
2023/06/20 05:16:14;;;;;;;13.38;4.70;;;16.60;99.90;;;;;;5015735;28;20179;-70
2023/06/20 05:18:40;;;;;;;12.32;4.88;;;16.60;99.90;;;;;;5014833;28;20265;-69
2023/06/20 05:21:06;;;;;;;14.95;4.50;;;16.60;99.90;;;;;;5016877;28;20214;-68
2023/06/20 05:23:31;;;;;;;11.25;4.13;;;16.60;99.90;;;;;;5013604;28;20659;-72
2023/06/20 05:25:57;;;;;;;14.48;4.35;;;16.40;99.90;;;;;;5013523;28;20174;-72
2023/06/20 05:28:23;;;;;;;9.80;3.95;;;16.40;99.90;;;;;;5013553;28;20656;-71
2023/06/20 05:30:48;;;;;;;6.38;3.20;;;16.30;99.90;;;;;;5012589;28;20175;-72
2023/06/20 05:33:15;;;;;;;8.68;4.03;;;16.30;99.90;;;;;;5012453;28;20175;-73
2023/06/20 05:35:41;;;;;;;11.68;4.32;;;16.30;99.90;;;;;;5012355;28;20166;-71
2023/06/20 05:38:07;;;;;;;10.68;4.68;;;16.30;99.90;;;;;;5011546;28;20163;-72
2023/06/20 05:40:32;;;;;;;12.82;4.82;;;16.30;99.90;;;;;;5000865;28;20225;-72
2023/06/20 05:42:58;;;;;;;13.07;5.20;;;16.40;99.90;;;;;;5009462;28;20217;-73
2023/06/20 05:45:23;;;;;;;12.00;4.22;;;16.40;99.90;;;;;;5007774;28;20528;-72
2023/06/20 05:47:49;;;;;;;11.25;4.78;;;16.40;99.90;;;;;;4992613;28;20178;-71
2023/06/20 05:50:15;;;;;;;15.52;4.65;;;16.50;99.90;;;;;;4992513;28;20175;-72
2023/06/20 05:52:42;;;;;;;9.73;4.65;;;16.50;99.90;;;;;;4992458;28;20239;-71
2023/06/20 05:55:07;;;;;;;9.48;4.47;;;16.60;99.90;;;;;;4992178;28;20175;-71
2023/06/20 05:57:33;;;;;;;9.48;4.38;;;16.70;99.90;;;;;;4991973;28;20179;-69
2023/06/20 05:59:59;;;;;;;8.10;4.60;;;16.80;99.90;;;;;;4992075;28;20214;-71
2023/06/20 06:02:24;;;;;;;6.28;3.95;;;16.70;99.90;;;;;;4991846;28;20699;-70
2023/06/20 06:04:50;;;;;;;8.75;4.82;;;16.60;99.90;;;;;;4991919;28;20205;-71
2023/06/20 06:07:15;;;;;;;6.95;4.25;;;16.60;99.90;;;;;;4991898;28;20250;-72
2023/06/20 06:09:41;;;;;;;11.20;4.53;;;16.60;99.90;;;;;;4992168;28;20175;-70
2023/06/20 06:12:08;;;;;;;6.72;4.18;;;16.60;99.90;;;;;;5011407;28;20185;-70
2023/06/20 06:14:33;;;;;;;9.00;4.40;;;16.70;99.90;;;;;;5011417;28;20190;-70
2023/06/20 06:16:59;;;;;;;6.85;3.92;;;16.60;99.90;;;;;;5011334;28;20170;-69
2023/06/20 06:19:25;;;;;;;4.95;3.88;;;16.60;99.90;;;;;;5015020;28;20277;-70
2023/06/20 06:21:50;;;;;;;7.43;3.92;;;16.60;99.90;;;;;;4993542;28;20183;-70
2023/06/20 06:24:16;;;;;;;7.35;3.70;;;16.70;99.90;;;;;;5011231;28;20166;-70
2023/06/20 06:26:42;;;;;;;7.78;3.30;;;16.70;99.90;;;;;;5011441;28;20531;-70
2023/06/20 06:29:07;;;;;;;6.40;3.53;;;16.70;99.90;;;;;;5011180;28;20521;-70
2023/06/20 06:31:34;;;;;;;7.53;3.42;;;16.70;99.90;;;;;;4998054;28;20179;-72
2023/06/20 06:34:02;;;;;;;8.32;3.58;;;16.80;99.90;;;;;;4991665;28;20190;-73
2023/06/20 06:36:32;;;;;;;5.47;3.85;;;16.80;99.90;;;;;;4997300;28;20171;-73
2023/06/20 06:38:59;;;;;;;6.93;3.35;;;16.80;99.90;;;;;;4993660;28;20618;-73
2023/06/20 06:41:25;;;;;;;5.13;3.03;;;16.90;99.90;;;;;;5015753;28;20240;-74
2023/06/20 06:43:50;;;;;;;5.25;2.85;;;16.90;99.90;;;;;;5018388;28;20582;-74
2023/06/20 06:46:16;;;;;;;6.32;2.97;;;16.90;99.90;;;;;;5011814;28;20167;-73
2023/06/20 06:48:41;;;;;;;6.78;3.42;;;17.00;99.90;;;;;;5012877;28;20652;-73
2023/06/20 06:51:07;;;;;;;6.35;3.00;;;17.00;99.90;;;;;;5015337;28;20581;-79
2023/06/20 06:53:33;;;;;;;10.63;3.30;;;17.00;99.90;;;;;;5015555;28;20229;-66
2023/06/20 06:55:59;;;;;;;4.13;2.63;;;17.00;99.90;;;;;;5014480;28;20254;-64
2023/06/20 06:58:24;;;;;;;5.43;2.65;;;17.00;99.90;;;;;;5016933;28;20629;-63
2023/06/20 07:00:50;;;;;;;8.00;2.65;;;17.00;99.90;;;;;;5032817;28;20617;-64
2023/06/20 07:03:16;;;;;;;5.53;2.35;;;17.20;99.90;;;;;;5028977;28;20209;-65
2023/06/20 07:05:41;;;;;;;5.88;2.50;;;17.90;99.90;;;;;;5014853;28;20206;-66
2023/06/20 07:08:07;;;;;;;7.78;2.55;;;17.30;99.90;;;;;;5017116;28;20174;-70
2023/06/20 07:10:33;;;;;;;7.10;2.97;;;17.30;99.90;;;;;;5022693;28;20178;-71
2023/06/20 07:12:58;;;;;;;6.72;3.15;;;17.30;99.90;;;;;;5027466;28;20201;-71
2023/06/20 07:15:24;;;;;;;3.38;2.45;;;17.40;99.90;;;;;;5034513;28;20533;-70
2023/06/20 07:17:50;;;;;;;4.55;2.30;;;17.40;99.90;;;;;;5034365;28;20182;-72
2023/06/20 07:20:17;;;;;;;5.82;2.50;;;;;;;;;;5032624;28;20201;-71
2023/06/20 07:22:45;;;;;;;3.88;2.00;;;17.30;99.90;;;;;;5019627;28;20183;-70
2023/06/20 07:25:11;;;;;;;4.32;2.08;;;17.30;99.90;;;;;;5014440;28;20201;-73
2023/06/20 07:27:36;;;;;;;3.10;2.08;;;17.30;99.90;;;;;;5014601;28;20668;-66
2023/06/20 07:30:03;;;;;;;5.75;2.40;;;17.20;99.90;;;;;;5014366;28;20246;-66
2023/06/20 07:32:28;;;;;;;6.65;2.30;;;17.40;99.90;;;;;;5015111;28;20178;-66
2023/06/20 07:34:54;;;;;;;3.70;2.42;;;17.50;99.90;;;;;;5014449;28;20270;-65
2023/06/20 07:37:20;;;;;;;3.92;2.15;;;17.90;99.90;;;;;;5014261;28;20691;-65
2023/06/20 07:39:46;;;;;;;3.65;2.42;;;17.90;99.90;;;;;;5017948;28;20264;-66
2023/06/20 07:42:13;;;;;;;3.60;1.83;;;18.00;99.90;;;;;;5033106;28;20592;-65
2023/06/20 07:44:38;;;;;;;3.38;2.03;;;18.00;99.90;;;;;;5033928;28;20541;-66
2023/06/20 07:47:04;;;;;;;4.35;2.15;;;18.00;99.90;;;;;;5027497;28;20178;-67
2023/06/20 07:49:30;;;;;;;4.53;2.10;;;18.10;99.90;;;;;;5008620;28;20205;-66
2023/06/20 07:51:56;;;;;;;5.47;2.38;;;18.00;99.90;;;;;;5017597;28;20194;-66
2023/06/20 07:54:22;;;;;;;4.28;2.05;;;18.00;99.90;;;;;;5018802;28;20236;-65
2023/06/20 07:56:47;;;;;;;3.10;1.95;;;18.00;99.90;;;;;;5013733;28;20183;-65
2023/06/20 07:59:13;;;;;;;3.15;2.08;;;18.00;99.90;;;;;;5013837;28;20217;-64
2023/06/20 08:01:38;;;;;;;4.63;2.08;;;18.10;99.90;;;;;;5023066;28;20272;-63
2023/06/20 08:04:04;;;;;;;4.88;2.10;;;18.30;99.90;;;;;;5033536;28;20680;-63
2023/06/20 08:06:30;;;;;;;3.30;1.80;;;18.20;99.90;;;;;;5026490;28;20190;-64
2023/06/20 08:08:55;;;;;;;4.25;1.95;;;18.40;99.90;;;;;;4995828;28;20178;-64
2023/06/20 08:11:22;;;;;;;2.97;2.20;;;18.70;99.90;;;;;;5013319;28;20186;-64
2023/06/20 08:13:47;;;;;;;3.47;1.90;;;18.80;99.90;;;;;;5013458;28;20326;-65
2023/06/20 08:16:13;;;;;;;3.85;1.85;;;19.10;99.90;;;;;;5013647;28;20227;-65
2023/06/20 08:18:38;;;;;;;7.60;2.17;;;19.30;99.90;;;;;;5013586;28;20630;-64
2023/06/20 08:21:04;;;;;;;3.95;1.90;;;19.30;99.90;;;;;;5013286;28;20680;-64
2023/06/20 08:23:30;;;;;;;3.10;1.80;;;19.20;99.90;;;;;;5013167;28;20175;-65
2023/06/20 08:25:56;;;;;;;4.72;2.03;;;19.20;99.90;;;;;;5013285;28;20167;-64
2023/06/20 08:28:25;;;;;;;2.85;1.50;;;19.30;99.90;;;;;;5013114;28;20266;-64
2023/06/20 08:30:51;;;;;;;5.03;2.08;;;19.40;99.90;;;;;;5013029;28;20737;-64
2023/06/20 08:33:19;;;;;;;5.25;1.85;;;19.30;99.90;;;;;;5013264;28;20519;-63
2023/06/20 08:35:44;;;;;;;4.50;1.90;;;19.20;99.90;;;;;;5013114;28;20298;-64
2023/06/20 08:38:10;;;;;;;9.50;2.22;;;19.40;99.90;;;;;;5013152;28;20218;-64
2023/06/20 08:40:36;;;;;;;4.68;2.00;;;19.60;99.90;;;;;;5012917;28;20682;-64
2023/06/20 08:43:02;;;;;;;6.68;2.40;;;19.40;99.90;;;;;;5012827;28;20250;-64
2023/06/20 08:45:27;;;;;;;8.18;1.80;;;19.50;99.90;;;;;;4995376;28;20281;-65
2023/06/20 08:47:58;;;;;;;2.67;1.50;;;19.60;99.90;;;;;;5012850;28;20170;-65
2023/06/20 08:50:25;;;;;;;5.82;2.08;;;19.70;99.90;;;;;;5012969;28;20170;-64
2023/06/20 08:52:56;;;;;;;5.85;1.98;;;19.70;99.90;;;;;;5012637;28;20369;-65
2023/06/20 08:55:22;;;;;;;5.40;2.10;;;19.90;99.90;;;;;;5012744;28;20171;-64
2023/06/20 08:57:48;;;;;;;4.70;2.05;;;19.40;99.90;;;;;;5012591;28;20225;-64
2023/06/20 09:00:18;;;;;;;4.22;2.05;;;19.70;99.90;;;;;;5012409;28;20214;-63
2023/06/20 09:02:43;;;;;;;7.07;2.13;;;19.80;99.90;;;;;;5012473;28;20217;-62
2023/06/20 09:05:09;;;;;;;3.50;1.58;;;19.80;99.90;;;;;;5012472;28;20567;-62
2023/06/20 09:07:37;;;;;;;6.68;2.22;;;19.60;99.90;;;;;;5012748;28;20174;-64
2023/06/20 09:10:07;;;;;;;6.35;2.35;;;19.70;99.90;;;;;;5012356;28;20311;-63
2023/06/20 09:12:53;;;;;;;7.22;2.40;;;20.00;99.90;;;;;;5011609;28;20177;-64
2023/06/20 09:15:20;;;;;;;11.02;2.83;;;20.10;99.90;;;;;;5012413;28;20182;-64
2023/06/20 09:17:50;;;;;;;9.93;2.22;;;20.20;99.90;;;;;;5012186;28;20171;-63
2023/06/20 09:20:16;;;;;;;5.43;1.77;;;20.70;99.90;;;;;;5012203;28;20268;-63
2023/06/20 09:22:42;;;;;;;4.47;2.10;;;21.10;99.90;;;;;;5012128;28;20178;-63
2023/06/20 09:25:09;;;;;;;9.43;1.80;;;21.50;99.90;;;;;;5012138;28;20201;-63
2023/06/20 09:27:37;;;;;;;5.80;1.83;;;21.70;99.90;;;;;;5012099;28;20193;-63
2023/06/20 09:30:03;;;;;;;3.65;2.00;;;21.70;99.90;;;;;;5011999;28;20257;-63
2023/06/20 09:32:34;;;;;;;7.40;2.03;;;21.30;99.90;;;;;;4994358;28;20170;-64
2023/06/20 09:35:03;;;;;;;7.22;1.70;;;21.10;99.90;;;;;;5011708;28;20178;-62
2023/06/20 09:37:51;;;;;;;8.48;2.15;;;21.40;99.90;;;;;;5011905;28;20178;-63
2023/06/20 09:40:19;;;;;;;5.78;2.08;;;21.70;99.90;;;;;;5011747;28;20212;-63
2023/06/20 09:42:46;;;;;;;11.80;1.92;;;21.80;99.90;;;;;;5011873;28;20170;-64
2023/06/20 09:45:16;;;;;;;5.32;2.05;;;22.10;99.90;;;;;;5011645;28;20224;-64
2023/06/20 09:47:42;;;;;;;10.73;1.83;;;22.00;99.90;;;;;;5011698;28;20202;-64
2023/06/20 09:50:13;;;;;;;3.47;1.60;;;22.60;99.90;;;;;;5011579;28;20250;-63
2023/06/20 09:52:47;;;;;;;4.15;1.92;;;22.10;99.90;;;;;;5003552;28;20268;-63
2023/06/20 09:55:14;;;;;;;4.88;1.77;;;21.80;99.90;;;;;;5006843;28;20166;-63
2023/06/20 09:57:49;;;;;;;5.20;2.08;;;22.10;99.90;;;;;;5011499;28;20178;-64
2023/06/20 10:00:17;;;;;;;5.13;1.80;;;22.70;99.90;;;;;;5011349;28;20217;-64
2023/06/20 10:02:44;;;;;;;2.85;1.50;;;22.90;99.90;;;;;;5011633;28;20181;-64
2023/06/20 10:05:15;;;;;;;2.45;1.50;;;23.30;99.90;;;;;;5011621;28;20171;-64
2023/06/20 10:07:42;;;;;;;8.45;1.70;;;23.30;99.90;;;;;;5011457;28;20171;-63
2023/06/20 10:10:14;;;;;;;4.35;1.70;;;23.70;99.90;;;;;;5011272;28;20541;-64
2023/06/20 10:12:41;;;;;;;3.38;1.50;;;23.80;99.90;;;;;;5011227;28;20638;-63
2023/06/20 10:15:08;;;;;;;6.03;1.73;;;24.00;99.90;;;;;;5011518;28;20332;-63
2023/06/20 10:17:39;;;;;;;5.45;1.58;;;23.90;99.90;;;;;;5011344;28;20240;-63
2023/06/20 10:20:08;;;;;;;4.80;1.73;;;23.30;99.90;;;;;;5011195;28;20222;-63
2023/06/20 10:22:41;;;;;;;3.63;1.88;;;22.80;99.90;;;;;;5011190;28;20197;-64
2023/06/20 10:25:18;;;;;;;3.70;1.70;;;22.50;99.90;;;;;;5010800;28;20179;-63
2023/06/20 10:28:05;;;;;;;2.53;1.65;;;22.20;99.90;;;;;;5011436;28;20178;-63
2023/06/20 10:30:46;;;;;;;3.40;1.48;;;22.00;99.90;;;;;;5011202;28;20184;-65
2023/06/20 10:33:13;;;;;;;3.97;1.70;;;22.10;99.90;;;;;;5011289;28;20711;-65
2023/06/20 10:35:55;;;;;;;3.45;1.65;;;22.30;99.90;;;;;;5011135;28;20629;-64
2023/06/20 10:38:21;;;;;;;4.25;1.80;;;;;;;;;;5010964;28;20178;-64
2023/06/20 10:40:47;;;;;;;5.05;1.77;;;22.60;99.90;;;;;;5010951;28;20217;-64
2023/06/20 10:43:17;;;;;;;3.22;1.70;;;22.20;99.90;;;;;;5011122;28;20600;-63
2023/06/20 10:45:53;;;;;;;4.78;1.90;;;22.10;99.90;;;;;;5010950;28;20174;-64
2023/06/20 10:48:20;;;;;;;5.57;1.52;;;22.40;99.90;;;;;;5010808;28;20236;-64
2023/06/20 10:50:46;;;;;;;3.75;2.35;;;22.50;99.90;;;;;;5011013;28;20281;-64
2023/06/20 10:53:13;;;;;;;2.47;1.70;;;23.10;99.90;;;;;;5010836;28;20261;-63
2023/06/20 10:55:39;;;;;;;6.85;2.08;;;23.00;99.90;;;;;;5010750;28;20653;-63
2023/06/20 10:58:05;;;;;;;5.70;2.17;;;22.30;99.90;;;;;;4993068;28;20213;-64
2023/06/20 11:00:30;;;;;;;4.85;2.15;;;22.00;99.90;;;;;;5010682;28;20264;-63
2023/06/20 11:02:56;;;;;;;7.38;2.35;;;21.60;99.90;;;;;;5010836;28;20249;-64
2023/06/20 11:05:29;;;;;;;3.40;2.10;;;21.50;99.90;;;;;;5010941;28;20202;-64
2023/06/20 11:08:08;;;;;;;4.85;1.60;;;21.80;99.90;;;;;;5010689;28;20165;-64
2023/06/20 11:10:37;;;;;;;3.20;1.60;;;22.00;99.90;;;;;;5010712;28;20182;-64
2023/06/20 11:13:07;;;;;;;4.18;1.60;;;22.50;99.90;;;;;;5013253;28;20235;-64
2023/06/20 11:15:37;;;;;;;2.65;1.55;;;23.10;99.90;;;;;;5022126;28;20209;-64
2023/06/20 11:18:06;;;;;;;3.38;1.55;;;23.10;99.90;;;;;;5018900;28;20266;-64
2023/06/20 11:20:39;;;;;;;6.45;2.10;;;22.90;99.90;;;;;;5010503;28;20215;-64
2023/06/20 11:23:12;;;;;;;2.88;1.60;;;22.60;99.90;;;;;;5012874;28;20217;-64
2023/06/20 11:25:41;;;;;;;5.72;2.28;;;22.50;99.90;;;;;;5015903;28;20291;-64
2023/06/20 11:28:08;;;;;;;5.68;1.70;;;22.30;99.90;;;;;;5021291;28;20185;-64
2023/06/20 11:30:36;;;;;;;4.63;2.08;;;22.30;99.90;;;;;;5030289;28;20177;-65
2023/06/20 11:33:01;;;;;;;5.55;2.20;;;22.70;99.90;;;;;;5025635;28;20173;-64
2023/06/20 11:35:42;;;;;;;8.02;2.30;;;23.00;99.90;;;;;;5022035;28;20543;-64
2023/06/20 11:38:13;;;;;;;7.35;2.30;;;24.00;99.90;;;;;;5013787;28;20182;-65
2023/06/20 11:40:40;;;;;;;4.03;1.90;;;24.60;99.90;;;;;;5014023;28;20218;-64
2023/06/20 11:43:06;;;;;;;3.85;1.92;;;25.00;99.90;;;;;;5014709;28;20178;-65
2023/06/20 11:45:34;;;;;;;4.93;1.90;;;25.20;99.90;;;;;;5014841;28;20177;-64
2023/06/20 11:48:13;;;;;;;3.53;1.58;;;25.90;99.90;;;;;;5031435;28;20633;-64
2023/06/20 11:50:44;;;;;;;2.65;1.50;;;26.10;99.90;;;;;;5031333;28;20169;-64
2023/06/20 11:53:20;;;;;;;3.67;1.67;;;26.50;99.90;;;;;;5033480;28;20226;-64
2023/06/20 11:55:51;;;;;;;4.05;1.60;;;26.30;99.90;;;;;;5033400;28;20244;-64
2023/06/20 11:58:17;;;;;;;4.15;1.95;;;26.30;99.90;;;;;;5018949;28;20206;-63
2023/06/20 12:00:48;;;;;;;3.60;1.48;;;26.40;99.90;;;;;;5013584;28;20352;-63
2023/06/20 12:03:21;;;;;;;2.85;1.80;;;26.80;99.90;;;;;;5020219;28;20174;-64
2023/06/20 12:05:47;;;;;;;5.75;1.60;;;26.80;99.90;;;;;;5021263;28;20589;-64
2023/06/20 12:08:14;;;;;;;2.83;1.50;;;26.80;99.90;;;;;;5013485;28;20308;-63
2023/06/20 12:10:46;;;;;;;6.15;1.98;;;26.60;99.90;;;;;;5013108;28;20171;-63
2023/06/20 12:13:11;;;;;;;3.55;1.73;;;26.60;99.90;;;;;;5029791;28;20638;-64
2023/06/20 12:15:37;;;;;;;3.42;1.55;;;26.50;99.90;;;;;;5031949;28;20232;-64
2023/06/20 12:18:02;;;;;;;2.47;1.80;;;26.00;99.90;;;;;;5033110;28;20633;-64
2023/06/20 12:20:28;;;;;;;3.58;2.00;;;25.70;99.90;;;;;;5032844;28;20635;-64
2023/06/20 12:22:54;;;;;;;2.72;1.70;;;25.80;99.90;;;;;;5015413;28;20184;-64
2023/06/20 12:25:19;;;;;;;3.75;1.83;;;26.70;99.90;;;;;;5032921;28;20166;-64
2023/06/20 12:27:45;;;;;;;4.85;2.20;;;26.40;99.90;;;;;;5021474;28;20209;-64
2023/06/20 12:30:11;;;;;;;5.55;1.63;;;26.20;99.90;;;;;;5023917;28;20707;-64
2023/06/20 12:32:36;;;;;;;5.13;1.80;;;27.00;99.90;;;;;;5013004;28;20261;-63
2023/06/20 12:35:02;;;;;;;5.03;1.90;;;26.70;99.90;;;;;;5008400;28;20229;-64
2023/06/20 12:37:28;;;;;;;2.88;1.73;;;26.70;99.90;;;;;;5017103;28;20174;-64
2023/06/20 12:39:53;;;;;;;3.05;1.70;;;26.50;99.90;;;;;;5031087;28;20629;-64
2023/06/20 12:42:19;;;;;;;3.13;1.60;;;26.10;99.90;;;;;;5012741;28;20185;-63
2023/06/20 12:44:45;;;;;;;6.60;2.45;;;26.00;99.90;;;;;;5012718;28;20253;-64
2023/06/20 12:47:12;;;;;;;3.92;1.80;;;25.60;99.90;;;;;;5012549;28;20185;-63
2023/06/20 12:49:38;;;;;;;4.68;2.00;;;25.60;99.90;;;;;;5012654;28;20185;-64